createdAt,value
2018-07-15T00:02:05.773Z,2.50
2018-07-15T00:04:35.633Z,2.57
2018-07-15T00:07:03.786Z,2.50
2018-07-15T00:09:32.860Z,2.50
2018-07-15T00:12:01.074Z,2.80
2018-07-15T00:14:30.256Z,2.63
2018-07-15T00:16:58.530Z,2.90
2018-07-15T00:19:28.265Z,2.90
2018-07-15T00:21:56.797Z,2.83
2018-07-15T00:24:25.598Z,3.00
2018-07-15T00:26:54.472Z,2.40
2018-07-15T00:29:22.846Z,2.90
2018-07-15T00:31:51.632Z,3.00
2018-07-15T00:34:19.797Z,2.70
2018-07-15T00:36:48.860Z,2.93
2018-07-15T00:39:19.533Z,2.70
2018-07-15T00:41:47.856Z,3.03
2018-07-15T00:44:16.842Z,2.90
2018-07-15T00:46:45.664Z,2.73
2018-07-15T00:49:14.593Z,2.67
2018-07-15T00:51:42.991Z,2.87
2018-07-15T00:54:12.779Z,2.43
2018-07-15T00:56:41.017Z,2.90
2018-07-15T00:59:10.286Z,2.40
2018-07-15T01:01:39.283Z,2.67
2018-07-15T01:04:07.885Z,2.50
2018-07-15T01:06:36.140Z,2.33
2018-07-15T01:09:05.919Z,2.90
2018-07-15T01:11:34.762Z,2.60
2018-07-15T01:14:03.527Z,2.80
2018-07-15T01:16:32.270Z,2.40
2018-07-15T01:19:01.025Z,2.40
2018-07-15T01:21:29.352Z,2.60
2018-07-15T01:23:58.489Z,2.40
2018-07-15T01:26:26.611Z,2.60
2018-07-15T01:28:56.131Z,3.17
2018-07-15T01:31:24.419Z,2.70
2018-07-15T01:33:52.913Z,3.03
2018-07-15T01:36:23.185Z,2.63
2018-07-15T01:38:51.480Z,2.80
2018-07-15T01:41:20.477Z,2.60
2018-07-15T01:43:49.197Z,2.83
2018-07-15T01:46:18.474Z,2.80
2018-07-15T01:48:46.646Z,2.67
2018-07-15T01:51:15.720Z,2.77
2018-07-15T01:53:43.959Z,3.13
2018-07-15T01:56:12.847Z,3.10
2018-07-15T01:58:41.660Z,2.90
2018-07-15T02:01:09.883Z,2.77
2018-07-15T02:03:38.855Z,2.90
2018-07-15T02:06:07.180Z,2.70
2018-07-15T02:08:36.055Z,2.77
2018-07-15T02:11:04.685Z,3.53
2018-07-15T02:13:32.840Z,2.90
2018-07-15T02:16:02.250Z,2.63
2018-07-15T02:18:30.594Z,2.70
2018-07-15T02:21:00.928Z,2.90
2018-07-15T02:23:30.519Z,2.97
2018-07-15T02:25:59.328Z,3.07
2018-07-15T02:28:28.889Z,3.10
2018-07-15T02:30:57.662Z,3.27
2018-07-15T02:33:25.825Z,3.10
2018-07-15T02:35:55.065Z,3.17
2018-07-15T02:38:25.396Z,2.90
2018-07-15T02:40:54.268Z,3.00
2018-07-15T02:43:23.718Z,3.00
2018-07-15T02:45:52.806Z,3.40
2018-07-15T02:48:21.852Z,3.30
2018-07-15T02:50:51.269Z,2.87
2018-07-15T02:53:20.516Z,3.50
2018-07-15T02:55:49.404Z,3.30
2018-07-15T02:58:18.162Z,3.57
2018-07-15T03:00:47.176Z,3.00
2018-07-15T03:03:16.687Z,3.73
2018-07-15T03:05:44.877Z,3.00
2018-07-15T03:08:13.168Z,3.30
2018-07-15T03:10:42.813Z,3.50
2018-07-15T03:13:11.127Z,3.07
2018-07-15T03:15:39.408Z,3.30
2018-07-15T03:18:08.284Z,3.57
2018-07-15T03:20:36.511Z,3.37
2018-07-15T03:23:05.276Z,3.27
2018-07-15T03:25:33.585Z,3.47
2018-07-15T03:28:02.792Z,3.37
2018-07-15T03:30:31.469Z,3.20
2018-07-15T03:33:00.439Z,3.10
2018-07-15T03:35:29.271Z,3.33
2018-07-15T03:37:58.589Z,3.10
2018-07-15T03:40:26.705Z,3.20
2018-07-15T03:42:55.108Z,3.03
2018-07-15T03:45:23.265Z,2.83
2018-07-15T03:47:52.104Z,3.10
2018-07-15T03:50:20.606Z,3.00
2018-07-15T03:52:50.214Z,2.83
2018-07-15T03:55:20.202Z,2.93
2018-07-15T03:57:48.632Z,3.00
2018-07-15T04:00:17.094Z,3.20
2018-07-15T04:02:45.849Z,3.43
2018-07-15T04:05:14.126Z,3.07
2018-07-15T04:07:42.420Z,2.93
2018-07-15T04:10:11.425Z,2.70
2018-07-15T04:12:40.476Z,2.90
2018-07-15T04:15:08.929Z,3.17
2018-07-15T04:17:38.441Z,3.00
2018-07-15T04:20:06.674Z,3.30
2018-07-15T04:22:34.988Z,3.10
2018-07-15T04:25:03.765Z,2.97
2018-07-15T04:27:33.092Z,3.20
2018-07-15T04:30:02.349Z,3.00
2018-07-15T04:32:30.576Z,2.90
2018-07-15T04:34:58.860Z,2.80
2018-07-15T04:37:27.089Z,3.43
2018-07-15T04:39:55.270Z,2.97
2018-07-15T04:42:24.199Z,2.93
2018-07-15T04:44:53.285Z,2.50
2018-07-15T04:47:21.437Z,3.03
2018-07-15T04:49:49.646Z,2.47
2018-07-15T04:52:18.680Z,3.17
2018-07-15T04:54:46.914Z,3.13
2018-07-15T04:57:15.728Z,2.93
2018-07-15T04:59:44.801Z,3.10
2018-07-15T05:02:13.991Z,2.90
2018-07-15T05:04:42.342Z,3.37
2018-07-15T05:07:11.705Z,3.40
2018-07-15T05:09:40.996Z,3.23
2018-07-15T05:12:09.328Z,3.10
2018-07-15T05:14:38.044Z,2.83
2018-07-15T05:17:07.027Z,2.90
2018-07-15T05:19:36.132Z,2.73
2018-07-15T05:22:04.359Z,2.77
2018-07-15T05:24:33.126Z,2.73
2018-07-15T05:27:02.343Z,2.90
2018-07-15T05:29:32.468Z,2.53
2018-07-15T05:32:02.150Z,2.80
2018-07-15T05:34:30.903Z,2.87
2018-07-15T05:36:59.800Z,3.00
2018-07-15T05:39:28.654Z,3.20
2018-07-15T05:41:57.325Z,3.20
2018-07-15T05:44:26.239Z,3.40
2018-07-15T05:46:55.811Z,2.90
2018-07-15T05:49:24.021Z,2.77
2018-07-15T05:51:52.216Z,3.30
2018-07-15T05:54:20.381Z,2.97
2018-07-15T05:56:49.198Z,3.00
2018-07-15T05:59:17.470Z,3.27
2018-07-15T06:01:45.744Z,3.03
2018-07-15T06:04:15.123Z,3.00
2018-07-15T06:06:44.315Z,3.83
2018-07-15T06:09:13.188Z,3.30
2018-07-15T06:11:41.544Z,3.30
2018-07-15T06:14:09.911Z,3.17
2018-07-15T06:16:38.861Z,3.20
2018-07-15T06:19:14.035Z,3.43
2018-07-15T06:21:43.652Z,3.37
2018-07-15T06:24:13.288Z,3.33
2018-07-15T06:26:42.095Z,3.37
2018-07-15T06:29:12.506Z,3.03
2018-07-15T06:31:40.779Z,3.33
2018-07-15T06:34:09.854Z,2.93
2018-07-15T06:36:39.339Z,3.57
2018-07-15T06:39:08.175Z,3.57
2018-07-15T06:41:36.903Z,3.03
2018-07-15T06:44:05.560Z,3.47
2018-07-15T06:46:34.314Z,3.47
2018-07-15T06:49:03.923Z,3.20
2018-07-15T06:51:32.757Z,3.30
2018-07-15T06:54:01.060Z,3.60
2018-07-15T06:56:30.046Z,3.57
2018-07-15T06:58:58.197Z,3.40
2018-07-15T07:01:27.280Z,3.57
2018-07-15T07:03:56.322Z,3.47
2018-07-15T07:06:25.154Z,3.30
2018-07-15T07:08:53.302Z,3.77
2018-07-15T07:11:21.678Z,3.70
2018-07-15T07:13:50.952Z,3.63
2018-07-15T07:16:19.207Z,4.00
2018-07-15T07:18:47.861Z,3.87
2018-07-15T07:21:16.733Z,2.87
2018-07-15T07:23:46.188Z,3.77
2018-07-15T07:26:14.354Z,3.43
2018-07-15T07:28:43.153Z,3.60
2018-07-15T07:31:12.012Z,3.50
2018-07-15T07:33:40.948Z,4.30
2018-07-15T07:36:09.701Z,3.27
2018-07-15T07:38:38.737Z,3.70
2018-07-15T07:41:06.906Z,2.47
2018-07-15T07:43:35.848Z,3.07
2018-07-15T07:46:04.549Z,3.43
2018-07-15T07:48:33.888Z,4.17
2018-07-15T07:51:02.244Z,4.23
2018-07-15T07:53:31.337Z,3.67
2018-07-15T07:55:59.531Z,3.43
2018-07-15T07:58:30.048Z,3.30
2018-07-15T08:00:58.826Z,3.93
2018-07-15T08:03:27.021Z,3.50
2018-07-15T08:05:55.266Z,3.10
2018-07-15T08:08:23.617Z,3.70
2018-07-15T08:10:51.984Z,3.40
2018-07-15T08:13:21.077Z,3.53
2018-07-15T08:15:49.709Z,3.10
2018-07-15T08:18:18.805Z,3.30
2018-07-15T08:20:47.659Z,3.33
2018-07-15T08:23:15.953Z,4.10
2018-07-15T08:25:44.490Z,3.87
2018-07-15T08:28:13.541Z,3.60
2018-07-15T08:30:47.757Z,3.83
2018-07-15T08:33:15.938Z,3.60
2018-07-15T08:35:44.516Z,4.00
2018-07-15T08:38:18.560Z,3.60
2018-07-15T08:40:53.097Z,3.70
2018-07-15T08:43:27.061Z,3.27
2018-07-15T08:46:01.477Z,3.93
2018-07-15T08:48:35.729Z,3.63
2018-07-15T08:51:09.384Z,3.83
2018-07-15T08:53:43.076Z,3.63
2018-07-15T08:56:16.917Z,3.70
2018-07-15T08:58:50.624Z,3.80
2018-07-15T09:01:24.416Z,3.27
2018-07-15T09:03:59.581Z,3.17
2018-07-15T09:06:33.672Z,2.97
2018-07-15T09:09:07.492Z,3.13
2018-07-15T09:11:43.125Z,3.37
2018-07-15T09:14:17.489Z,2.77
2018-07-15T09:16:52.217Z,3.37
2018-07-15T09:19:26.469Z,2.90
2018-07-15T09:22:00.297Z,3.07
2018-07-15T09:24:34.462Z,2.70
2018-07-15T09:27:09.877Z,3.00
2018-07-15T09:29:45.057Z,3.10
2018-07-15T09:32:20.220Z,2.80
2018-07-15T09:34:54.152Z,2.63
2018-07-15T09:37:28.206Z,3.10
2018-07-15T09:40:03.493Z,3.00
2018-07-15T09:42:37.922Z,2.77
2018-07-15T09:45:12.989Z,2.87
2018-07-15T09:47:47.479Z,2.77
2018-07-15T09:50:21.389Z,3.10
2018-07-15T09:52:56.178Z,3.00
2018-07-15T09:55:31.343Z,3.10
2018-07-15T09:58:06.911Z,3.03
2018-07-15T10:00:46.452Z,2.80
2018-07-15T10:03:21.619Z,3.20
2018-07-15T10:05:56.548Z,2.87
2018-07-15T10:08:30.429Z,2.87
2018-07-15T10:11:06.062Z,2.90
2018-07-15T10:13:40.381Z,3.10
2018-07-15T10:16:15.485Z,3.37
2018-07-15T10:18:49.990Z,3.00
2018-07-15T10:21:24.286Z,2.90
2018-07-15T10:23:58.292Z,3.23
2018-07-15T10:26:33.959Z,3.30
2018-07-15T10:29:08.337Z,3.43
2018-07-15T10:31:42.014Z,3.20
2018-07-15T10:34:15.931Z,2.93
2018-07-15T10:36:51.459Z,5.07
2018-07-15T10:39:25.785Z,4.10
2018-07-15T10:42:01.005Z,3.43
2018-07-15T10:44:34.952Z,3.50
2018-07-15T10:47:08.822Z,2.93
2018-07-15T10:49:42.799Z,3.00
2018-07-15T10:52:18.349Z,3.80
2018-07-15T10:54:52.889Z,3.60
2018-07-15T10:57:27.676Z,4.00
2018-07-15T11:00:01.521Z,3.90
2018-07-15T11:02:35.457Z,4.37
2018-07-15T11:05:10.963Z,3.87
2018-07-15T11:07:45.276Z,3.90
2018-07-15T11:10:19.969Z,3.50
2018-07-15T11:12:53.814Z,3.80
2018-07-15T11:15:29.164Z,3.20
2018-07-15T11:18:02.945Z,3.80
2018-07-15T11:20:37.956Z,3.73
2018-07-15T11:23:11.917Z,3.27
2018-07-15T11:25:46.489Z,3.57
2018-07-15T11:28:20.216Z,3.43
2018-07-15T11:30:55.399Z,3.50
2018-07-15T11:33:29.737Z,3.23
2018-07-15T11:36:04.411Z,3.40
2018-07-15T11:38:39.493Z,3.57
2018-07-15T11:41:14.521Z,3.03
2018-07-15T11:43:49.736Z,2.93
2018-07-15T11:46:23.780Z,2.50
2018-07-15T11:48:57.967Z,3.43
2018-07-15T11:51:33.198Z,3.70
2018-07-15T11:54:08.092Z,3.20
2018-07-15T11:56:41.933Z,2.97
2018-07-15T11:59:15.737Z,3.80
2018-07-15T12:01:49.718Z,3.50
2018-07-15T12:04:24.829Z,3.03
2018-07-15T12:06:59.142Z,2.60
2018-07-15T12:09:34.479Z,2.73
2018-07-15T12:12:08.603Z,2.70
2018-07-15T12:14:43.458Z,2.60
2018-07-15T12:17:19.049Z,2.40
2018-07-15T12:19:53.101Z,2.60
2018-07-15T12:22:28.292Z,2.50
2018-07-15T12:25:03.077Z,2.27
2018-07-15T12:27:38.173Z,2.50
2018-07-15T12:30:13.550Z,2.53
2018-07-15T12:32:47.795Z,2.20
2018-07-15T12:35:21.700Z,2.30
2018-07-15T12:37:56.916Z,2.47
2018-07-15T12:40:31.530Z,2.30
2018-07-15T12:43:06.218Z,2.40
2018-07-15T12:45:40.612Z,2.60
2018-07-15T12:48:15.652Z,2.67
2018-07-15T12:50:49.580Z,2.83
2018-07-15T12:53:24.553Z,2.47
2018-07-15T12:55:58.657Z,2.03
2018-07-15T12:58:33.414Z,2.23
2018-07-15T13:01:07.850Z,2.20
2018-07-15T13:03:44.079Z,2.53
2018-07-15T13:06:18.148Z,2.10
2018-07-15T13:08:52.677Z,2.60
2018-07-15T13:11:27.012Z,2.20
2018-07-15T13:14:01.030Z,2.40
2018-07-15T13:16:35.861Z,2.47
2018-07-15T13:19:09.852Z,2.20
2018-07-15T13:21:44.487Z,2.00
2018-07-15T13:24:19.379Z,2.27
2018-07-15T13:26:53.334Z,2.07
2018-07-15T13:29:27.065Z,1.90
2018-07-15T13:32:02.073Z,1.87
2018-07-15T13:34:35.978Z,1.90
2018-07-15T13:37:10.436Z,2.17
2018-07-15T13:39:44.344Z,1.90
2018-07-15T13:42:19.386Z,1.93
2018-07-15T13:44:53.449Z,2.20
2018-07-15T13:47:27.865Z,1.83
2018-07-15T13:50:02.879Z,1.80
2018-07-15T13:52:37.459Z,2.20
2018-07-15T13:55:11.625Z,1.87
2018-07-15T13:57:46.937Z,1.90
2018-07-15T14:00:21.258Z,1.73
2018-07-15T14:02:55.243Z,1.90
2018-07-15T14:05:30.559Z,1.80
2018-07-15T14:08:04.823Z,1.87
2018-07-15T14:10:39.808Z,1.70
2018-07-15T14:13:13.983Z,1.97
2018-07-15T14:15:49.168Z,2.10
2018-07-15T14:18:24.457Z,2.00
2018-07-15T14:20:58.434Z,1.70
2018-07-15T14:23:33.298Z,1.80
2018-07-15T14:26:07.742Z,1.80
2018-07-15T14:28:42.315Z,1.90
2018-07-15T14:31:16.198Z,1.67
2018-07-15T14:33:50.144Z,1.43
2018-07-15T14:36:25.259Z,2.00
2018-07-15T14:38:59.920Z,2.00
2018-07-15T14:41:35.123Z,1.83
2018-07-15T14:44:09.078Z,2.13
2018-07-15T14:46:43.221Z,1.90
2018-07-15T14:49:17.778Z,1.97
2018-07-15T14:51:52.594Z,2.20
2018-07-15T14:54:27.768Z,2.10
2018-07-15T14:57:02.453Z,2.17
2018-07-15T14:59:36.909Z,1.90
2018-07-15T15:02:11.447Z,1.90
2018-07-15T15:04:45.456Z,2.10
2018-07-15T15:07:19.932Z,2.13
2018-07-15T15:09:54.573Z,2.17
2018-07-15T15:12:29.202Z,2.17
2018-07-15T15:15:04.478Z,2.37
2018-07-15T15:17:39.002Z,2.00
2018-07-15T15:20:14.033Z,2.40
2018-07-15T15:22:47.759Z,2.40
2018-07-15T15:25:23.179Z,2.23
2018-07-15T15:27:57.469Z,2.50
2018-07-15T15:30:32.031Z,2.10
2018-07-15T15:33:06.795Z,2.27
2018-07-15T15:35:41.682Z,2.20
2018-07-15T15:38:16.079Z,2.30
2018-07-15T15:40:50.397Z,2.20
2018-07-15T15:43:24.433Z,2.50
2018-07-15T15:45:59.533Z,2.50
2018-07-15T15:48:34.063Z,2.83
2018-07-15T15:51:07.805Z,2.10
2018-07-15T15:53:42.744Z,2.00
2018-07-15T15:56:17.223Z,1.80
2018-07-15T15:58:51.893Z,2.10
2018-07-15T16:01:26.310Z,2.00
2018-07-15T16:04:00.101Z,2.10
2018-07-15T16:06:35.454Z,1.87
2018-07-15T16:09:10.565Z,1.70
2018-07-15T16:11:44.316Z,1.93
2018-07-15T16:14:18.289Z,1.90
2018-07-15T16:16:52.112Z,1.70
2018-07-15T16:19:26.629Z,1.80
2018-07-15T16:22:01.111Z,1.97
2018-07-15T16:24:34.821Z,1.90
2018-07-15T16:27:08.876Z,1.80
2018-07-15T16:29:44.196Z,1.50
2018-07-15T16:32:18.702Z,1.60
2018-07-15T16:34:53.045Z,1.57
2018-07-15T16:37:27.140Z,2.37
2018-07-15T16:40:00.941Z,1.90
2018-07-15T16:42:35.393Z,1.80
2018-07-15T16:45:09.855Z,1.70
2018-07-15T16:47:43.834Z,1.70
2018-07-15T16:50:17.744Z,1.90
2018-07-15T16:52:52.629Z,2.13
2018-07-15T16:55:27.160Z,1.73
2018-07-15T16:58:01.627Z,2.20
2018-07-15T17:00:35.586Z,1.70
2018-07-15T17:03:10.286Z,2.00
2018-07-15T17:05:44.440Z,2.07
2018-07-15T17:08:19.073Z,1.60
2018-07-15T17:10:54.419Z,2.13
2018-07-15T17:13:29.004Z,2.10
2018-07-15T17:16:03.498Z,1.70
2018-07-15T17:18:37.568Z,1.87
2018-07-15T17:21:11.579Z,1.77
2018-07-15T17:23:47.128Z,2.10
2018-07-15T17:26:22.824Z,1.97
2018-07-15T17:28:56.850Z,2.20
2018-07-15T17:31:30.670Z,2.40
2018-07-15T17:34:04.638Z,2.40
2018-07-15T17:36:38.712Z,2.30
2018-07-15T17:39:13.808Z,2.40
2018-07-15T17:41:47.871Z,2.57
2018-07-15T17:44:22.724Z,2.40
2018-07-15T17:46:57.557Z,3.03
2018-07-15T17:49:31.328Z,2.90
2018-07-15T17:52:05.965Z,2.60
2018-07-15T17:54:41.190Z,2.67
2018-07-15T17:57:14.996Z,2.80
2018-07-15T17:59:51.011Z,2.50
2018-07-15T18:02:24.871Z,3.00
2018-07-15T18:04:58.724Z,5.93
2018-07-15T18:07:33.392Z,3.10
2018-07-15T18:10:08.236Z,3.90
2018-07-15T18:12:42.252Z,3.70
2018-07-15T18:15:17.420Z,9.40
2018-07-15T18:17:51.323Z,4.30
2018-07-15T18:20:25.340Z,5.47
2018-07-15T18:22:59.360Z,10.77
2018-07-15T18:25:34.081Z,6.43
2018-07-15T18:28:08.141Z,7.50
2018-07-15T18:30:41.884Z,10.63
2018-07-15T18:33:15.683Z,8.20
2018-07-15T18:35:49.401Z,6.00
2018-07-15T18:38:23.287Z,6.70
2018-07-15T18:40:57.450Z,5.07
2018-07-15T18:43:31.434Z,6.47
2018-07-15T18:46:05.290Z,6.53
2018-07-15T18:48:39.067Z,10.00
2018-07-15T18:51:12.839Z,11.70
2018-07-15T18:53:46.542Z,9.83
2018-07-15T18:56:20.353Z,10.23
2018-07-15T18:58:54.301Z,7.97
2018-07-15T19:01:28.238Z,6.63
2018-07-15T19:04:02.485Z,12.57
2018-07-15T19:06:36.854Z,10.90
2018-07-15T19:09:11.389Z,10.87
2018-07-15T19:11:45.952Z,10.87
2018-07-15T19:14:19.892Z,8.33
2018-07-15T19:16:54.008Z,9.67
2018-07-15T19:19:28.811Z,9.43
2018-07-15T19:22:03.740Z,8.33
2018-07-15T19:24:38.129Z,7.23
2018-07-15T19:27:13.021Z,5.33
2018-07-15T19:29:48.152Z,4.63
2018-07-15T19:32:23.168Z,5.27
2018-07-15T19:34:57.937Z,3.83
2018-07-15T19:37:31.952Z,4.00
2018-07-15T19:40:06.022Z,3.50
2018-07-15T19:42:39.913Z,4.30
2018-07-15T19:45:14.372Z,4.03
2018-07-15T19:47:48.360Z,3.83
2018-07-15T19:50:22.855Z,4.17
2018-07-15T19:52:56.788Z,4.33
2018-07-15T19:55:30.758Z,4.00
2018-07-15T19:58:06.701Z,3.80
2018-07-15T20:00:42.142Z,3.90
2018-07-15T20:03:16.928Z,3.87
2018-07-15T20:05:51.049Z,3.93
2018-07-15T20:08:25.253Z,3.97
2018-07-15T20:11:02.502Z,4.40
2018-07-15T20:13:36.596Z,4.17
2018-07-15T20:16:14.098Z,4.10
2018-07-15T20:18:49.173Z,4.50
2018-07-15T20:21:23.381Z,3.97
2018-07-15T20:23:57.314Z,4.23
2018-07-15T20:26:31.271Z,3.90
2018-07-15T20:29:05.477Z,3.73
2018-07-15T20:31:39.986Z,3.70
2018-07-15T20:34:14.501Z,4.10
2018-07-15T20:36:49.200Z,3.53
2018-07-15T20:39:23.743Z,3.70
2018-07-15T20:41:59.669Z,3.50
2018-07-15T20:44:34.095Z,4.20
2018-07-15T20:47:10.270Z,3.83
2018-07-15T20:49:46.315Z,3.90
2018-07-15T20:52:21.145Z,3.70
2018-07-15T20:54:55.786Z,3.40
2018-07-15T20:57:29.982Z,4.00
2018-07-15T21:00:04.628Z,4.13
2018-07-15T21:02:40.556Z,4.10
2018-07-15T21:05:15.327Z,3.67
2018-07-15T21:07:49.732Z,4.17
2018-07-15T21:10:24.316Z,4.10
2018-07-15T21:12:59.377Z,3.67
2018-07-15T21:15:34.396Z,4.30
2018-07-15T21:18:10.152Z,4.10
2018-07-15T22:15:19.984Z,4.50
2018-07-15T22:17:57.953Z,4.80
2018-07-15T22:28:19.254Z,4.97
2018-07-15T23:21:51.207Z,5.27
2018-07-15T23:24:31.136Z,5.30
2018-07-15T23:27:20.924Z,5.67
